UAL1080 YMML-YSSY
Flight info
| Callsign | UAL1080 |
|---|---|
| Flight time | 1h 4m |
| Altitude | 37000 |
| Route | DOSEL Y59 RIVET |
| Aircraft | B789/H-SDE1E2E3FGHIJ2J3J4J5M1RWXY/LB1D1 |
Departure
| Time | 2026-04-24 23:48 |
|---|---|
| Airport | Melbourne Airport (YMML) |
Arrival
| Time | 2026-04-25 00:52 |
|---|---|
| Airport | Sydney Kingsford Smith International Airport (YSSY) |
| Time | Latitude | Longitude | Altitude | Speed | Heading |
|---|---|---|---|---|---|
| 2026-04-24 23:26 | -37.66901 | 144.84323 | 395 ft | 0 kts | 82° |
| 2026-04-24 23:27 | -37.66899 | 144.84344 | 395 ft | 0 kts | 82° |
| 2026-04-24 23:37 | -37.66900 | 144.84336 | 392 ft | 4 kts | 83° |
| 2026-04-24 23:38 | -37.66901 | 144.84302 | 391 ft | 4 kts | 91° |
| 2026-04-24 23:38 | -37.66901 | 144.84268 | 391 ft | 4 kts | 83° |
| 2026-04-24 23:38 | -37.66908 | 144.84241 | 387 ft | 4 kts | 53° |
| 2026-04-24 23:38 | -37.66927 | 144.84221 | 393 ft | 4 kts | 9° |
| 2026-04-24 23:39 | -37.66953 | 144.84222 | 393 ft | 4 kts | 349° |
| 2026-04-24 23:39 | -37.66962 | 144.84224 | 392 ft | 0 kts | 352° |
| 2026-04-24 23:41 | -37.66942 | 144.84221 | 393 ft | 6 kts | 352° |
| 2026-04-24 23:41 | -37.66881 | 144.84210 | 389 ft | 11 kts | 352° |
| 2026-04-24 23:42 | -37.66802 | 144.84195 | 396 ft | 11 kts | 348° |
| 2026-04-24 23:42 | -37.66740 | 144.84147 | 398 ft | 11 kts | 311° |
| 2026-04-24 23:42 | -37.66722 | 144.84040 | 398 ft | 15 kts | 255° |
| 2026-04-24 23:42 | -37.66812 | 144.83989 | 395 ft | 19 kts | 173° |
| 2026-04-24 23:43 | -37.66958 | 144.84017 | 392 ft | 23 kts | 171° |
| 2026-04-24 23:43 | -37.67083 | 144.84078 | 388 ft | 14 kts | 113° |
| 2026-04-24 23:43 | -37.67077 | 144.84162 | 389 ft | 9 kts | 79° |
| 2026-04-24 23:43 | -37.67075 | 144.84229 | 389 ft | 5 kts | 116° |
| 2026-04-24 23:44 | -37.67103 | 144.84249 | 389 ft | 8 kts | 160° |
| 2026-04-24 23:44 | -37.67195 | 144.84268 | 387 ft | 19 kts | 172° |
| 2026-04-24 23:44 | -37.67363 | 144.84299 | 384 ft | 28 kts | 172° |
| 2026-04-24 23:44 | -37.67565 | 144.84336 | 379 ft | 31 kts | 171° |
| 2026-04-24 23:45 | -37.67781 | 144.84377 | 372 ft | 33 kts | 172° |
| 2026-04-24 23:45 | -37.67970 | 144.84412 | 368 ft | 26 kts | 172° |
| 2026-04-24 23:45 | -37.68126 | 144.84442 | 361 ft | 22 kts | 171° |
| 2026-04-24 23:45 | -37.68285 | 144.84471 | 359 ft | 25 kts | 171° |
| 2026-04-24 23:46 | -37.68443 | 144.84388 | 356 ft | 26 kts | 214° |
| 2026-04-24 23:46 | -37.68540 | 144.84292 | 357 ft | 12 kts | 230° |
| 2026-04-24 23:46 | -37.68554 | 144.84224 | 351 ft | 8 kts | 262° |
| 2026-04-24 23:46 | -37.68561 | 144.84157 | 355 ft | 7 kts | 262° |
| 2026-04-24 23:47 | -37.68555 | 144.84109 | 354 ft | 3 kts | 312° |
| 2026-04-24 23:47 | -37.68521 | 144.84087 | 353 ft | 13 kts | 341° |
| 2026-04-24 23:47 | -37.68307 | 144.84049 | 359 ft | 59 kts | 352° |
| 2026-04-24 23:47 | -37.67681 | 144.83933 | 369 ft | 120 kts | 352° |
| 2026-04-24 23:48 | -37.66721 | 144.83753 | 631 ft | 147 kts | 352° |
| 2026-04-24 23:48 | -37.65710 | 144.83549 | 1461 ft | 149 kts | 354° |
| 2026-04-24 23:48 | -37.64694 | 144.83349 | 2347 ft | 153 kts | 353° |
| 2026-04-24 23:48 | -37.63536 | 144.83135 | 2781 ft | 183 kts | 352° |
| 2026-04-24 23:49 | -37.62183 | 144.82876 | 3206 ft | 212 kts | 350° |
| 2026-04-24 23:49 | -37.60628 | 144.82575 | 3852 ft | 233 kts | 349° |
| 2026-04-24 23:49 | -37.58986 | 144.82572 | 4845 ft | 245 kts | 8° |
| 2026-04-24 23:49 | -37.57360 | 144.83339 | 5872 ft | 254 kts | 21° |
| 2026-04-24 23:50 | -37.55758 | 144.84313 | 6800 ft | 264 kts | 21° |
| 2026-04-24 23:50 | -37.54090 | 144.85342 | 7762 ft | 267 kts | 21° |
| 2026-04-24 23:50 | -37.52403 | 144.86372 | 8741 ft | 273 kts | 20° |
| 2026-04-24 23:50 | -37.50666 | 144.87418 | 9602 ft | 281 kts | 21° |
| 2026-04-24 23:51 | -37.48873 | 144.88506 | 10346 ft | 294 kts | 21° |
| 2026-04-24 23:51 | -37.46946 | 144.89673 | 10597 ft | 322 kts | 21° |
| 2026-04-24 23:51 | -37.44849 | 144.90962 | 10867 ft | 346 kts | 26° |
| 2026-04-24 23:51 | -37.42990 | 144.92939 | 11747 ft | 355 kts | 46° |
| 2026-04-24 23:52 | -37.41504 | 144.95399 | 12550 ft | 361 kts | 50° |
| 2026-04-24 23:52 | -37.40067 | 144.98005 | 13405 ft | 363 kts | 53° |
| 2026-04-24 23:52 | -37.38622 | 145.00645 | 14231 ft | 367 kts | 53° |
| 2026-04-24 23:52 | -37.37132 | 145.03268 | 14930 ft | 371 kts | 52° |
| 2026-04-24 23:53 | -37.35615 | 145.05915 | 15608 ft | 375 kts | 52° |
| 2026-04-24 23:53 | -37.34092 | 145.08606 | 16271 ft | 380 kts | 52° |
| 2026-04-24 23:53 | -37.32555 | 145.11336 | 16942 ft | 385 kts | 53° |
| 2026-04-24 23:53 | -37.30997 | 145.14087 | 17596 ft | 389 kts | 52° |
| 2026-04-24 23:54 | -37.29417 | 145.16865 | 18208 ft | 394 kts | 52° |
| 2026-04-24 23:54 | -37.27819 | 145.19678 | 18818 ft | 398 kts | 53° |
| 2026-04-24 23:54 | -37.26205 | 145.22520 | 19376 ft | 401 kts | 53° |
| 2026-04-24 23:54 | -37.24580 | 145.25379 | 19930 ft | 404 kts | 52° |
| 2026-04-24 23:55 | -37.22943 | 145.28255 | 20494 ft | 406 kts | 53° |
| 2026-04-24 23:55 | -37.21296 | 145.31145 | 21024 ft | 409 kts | 53° |
| 2026-04-24 23:55 | -37.19635 | 145.34056 | 21525 ft | 412 kts | 53° |
| 2026-04-24 23:55 | -37.17982 | 145.36952 | 22012 ft | 415 kts | 52° |
| 2026-04-24 23:56 | -37.16295 | 145.39907 | 22484 ft | 417 kts | 52° |
| 2026-04-24 23:56 | -37.14591 | 145.42886 | 22950 ft | 420 kts | 52° |
| 2026-04-24 23:56 | -37.12875 | 145.45878 | 23373 ft | 424 kts | 52° |
| 2026-04-24 23:56 | -37.11148 | 145.48887 | 23826 ft | 426 kts | 52° |
| 2026-04-24 23:57 | -37.09412 | 145.51914 | 24215 ft | 429 kts | 52° |
| 2026-04-24 23:57 | -37.07667 | 145.54951 | 24588 ft | 431 kts | 52° |
| 2026-04-24 23:57 | -37.05910 | 145.58006 | 24928 ft | 433 kts | 52° |
| 2026-04-24 23:57 | -37.04159 | 145.61048 | 25246 ft | 436 kts | 52° |
| 2026-04-24 23:58 | -37.02382 | 145.64133 | 25569 ft | 438 kts | 52° |
| 2026-04-24 23:58 | -37.00593 | 145.67234 | 25874 ft | 441 kts | 53° |
| 2026-04-24 23:58 | -36.98793 | 145.70354 | 26213 ft | 443 kts | 53° |
| 2026-04-24 23:58 | -36.96985 | 145.73483 | 26543 ft | 445 kts | 53° |
| 2026-04-24 23:59 | -36.95163 | 145.76635 | 26856 ft | 448 kts | 53° |
| 2026-04-24 23:59 | -36.93332 | 145.79796 | 27178 ft | 450 kts | 53° |
| 2026-04-24 23:59 | -36.91490 | 145.82976 | 27506 ft | 452 kts | 53° |
| 2026-04-24 23:59 | -36.89639 | 145.86170 | 27833 ft | 455 kts | 53° |
| 2026-04-25 00:00 | -36.87771 | 145.89388 | 28109 ft | 459 kts | 52° |
| 2026-04-25 00:00 | -36.85910 | 145.92590 | 28411 ft | 462 kts | 53° |
| 2026-04-25 00:00 | -36.84015 | 145.95848 | 28742 ft | 464 kts | 53° |
| 2026-04-25 00:00 | -36.82113 | 145.99116 | 29036 ft | 467 kts | 53° |
| 2026-04-25 00:01 | -36.80197 | 146.02405 | 29383 ft | 470 kts | 53° |
| 2026-04-25 00:01 | -36.78273 | 146.05704 | 29753 ft | 471 kts | 53° |
| 2026-04-25 00:01 | -36.76341 | 146.09011 | 30147 ft | 472 kts | 53° |
| 2026-04-25 00:01 | -36.74400 | 146.12335 | 30495 ft | 474 kts | 53° |
| 2026-04-25 00:02 | -36.72452 | 146.15666 | 30788 ft | 477 kts | 53° |
| 2026-04-25 00:02 | -36.70489 | 146.19017 | 31068 ft | 479 kts | 53° |
| 2026-04-25 00:02 | -36.68520 | 146.22376 | 31352 ft | 481 kts | 53° |
| 2026-04-25 00:02 | -36.66538 | 146.25755 | 31633 ft | 483 kts | 53° |
| 2026-04-25 00:03 | -36.64549 | 146.29142 | 31899 ft | 486 kts | 53° |
| 2026-04-25 00:03 | -36.62548 | 146.32546 | 32183 ft | 488 kts | 53° |
| 2026-04-25 00:03 | -36.60541 | 146.35957 | 32493 ft | 489 kts | 53° |
| 2026-04-25 00:03 | -36.58550 | 146.39337 | 32749 ft | 491 kts | 53° |
| 2026-04-25 00:04 | -36.56518 | 146.42783 | 33027 ft | 493 kts | 53° |
| 2026-04-25 00:04 | -36.54490 | 146.46218 | 33424 ft | 492 kts | 53° |
| 2026-04-25 00:04 | -36.52462 | 146.49651 | 33812 ft | 492 kts | 54° |
| 2026-04-25 00:04 | -36.50432 | 146.53082 | 34200 ft | 492 kts | 54° |
| 2026-04-25 00:05 | -36.48405 | 146.56507 | 34553 ft | 492 kts | 54° |
| 2026-04-25 00:05 | -36.46375 | 146.59931 | 34877 ft | 491 kts | 54° |
| 2026-04-25 00:05 | -36.44347 | 146.63350 | 35208 ft | 491 kts | 54° |
| 2026-04-25 00:05 | -36.42319 | 146.66765 | 35532 ft | 490 kts | 54° |
| 2026-04-25 00:06 | -36.40298 | 146.70165 | 35865 ft | 490 kts | 54° |
| 2026-04-25 00:06 | -36.38268 | 146.73578 | 36185 ft | 490 kts | 54° |
| 2026-04-25 00:06 | -36.36244 | 146.76975 | 36494 ft | 489 kts | 54° |
| 2026-04-25 00:06 | -36.34223 | 146.80365 | 36804 ft | 489 kts | 54° |
| 2026-04-25 00:07 | -36.32226 | 146.83713 | 37099 ft | 489 kts | 54° |
| 2026-04-25 00:07 | -36.30206 | 146.87093 | 37464 ft | 487 kts | 54° |
| 2026-04-25 00:07 | -36.26143 | 146.93885 | 37468 ft | 489 kts | 54° |
| 2026-04-25 00:08 | -36.22106 | 147.00619 | 37473 ft | 485 kts | 54° |
| 2026-04-25 00:08 | -36.18072 | 147.07337 | 37473 ft | 486 kts | 54° |
| 2026-04-25 00:09 | -36.14056 | 147.14009 | 37472 ft | 486 kts | 54° |
| 2026-04-25 00:09 | -36.10017 | 147.20706 | 37472 ft | 485 kts | 54° |
| 2026-04-25 00:10 | -36.05980 | 147.27386 | 37475 ft | 485 kts | 54° |
| 2026-04-25 00:10 | -36.01934 | 147.34071 | 37473 ft | 485 kts | 54° |
| 2026-04-25 00:11 | -35.98562 | 147.39629 | 37477 ft | 486 kts | 54° |
| 2026-04-25 00:11 | -35.93829 | 147.47419 | 37476 ft | 484 kts | 54° |
| 2026-04-25 00:12 | -35.89810 | 147.54019 | 37472 ft | 484 kts | 54° |
| 2026-04-25 00:12 | -35.85761 | 147.60656 | 37475 ft | 484 kts | 54° |
| 2026-04-25 00:13 | -35.82365 | 147.66212 | 37480 ft | 484 kts | 54° |
| 2026-04-25 00:13 | -35.78334 | 147.72794 | 37481 ft | 484 kts | 54° |
| 2026-04-25 00:14 | -35.74279 | 147.79405 | 37482 ft | 484 kts | 54° |
| 2026-04-25 00:14 | -35.70217 | 147.86015 | 37479 ft | 483 kts | 54° |
| 2026-04-25 00:15 | -35.66157 | 147.92608 | 37478 ft | 483 kts | 54° |
| 2026-04-25 00:15 | -35.62101 | 147.99182 | 37485 ft | 482 kts | 54° |
| 2026-04-25 00:16 | -35.58047 | 148.05742 | 37483 ft | 481 kts | 54° |
| 2026-04-25 00:16 | -35.54016 | 148.12250 | 37482 ft | 482 kts | 54° |
| 2026-04-25 00:17 | -35.49949 | 148.18805 | 37471 ft | 482 kts | 54° |
| 2026-04-25 00:17 | -35.45884 | 148.25345 | 37473 ft | 482 kts | 54° |
| 2026-04-25 00:18 | -35.41811 | 148.31884 | 37471 ft | 482 kts | 54° |
| 2026-04-25 00:18 | -35.37744 | 148.38401 | 37479 ft | 481 kts | 54° |
| 2026-04-25 00:19 | -35.33697 | 148.44875 | 37484 ft | 482 kts | 54° |
| 2026-04-25 00:19 | -35.29619 | 148.51385 | 37485 ft | 482 kts | 54° |
| 2026-04-25 00:20 | -35.25533 | 148.57897 | 37484 ft | 481 kts | 54° |
| 2026-04-25 00:20 | -35.21459 | 148.64378 | 37479 ft | 480 kts | 54° |
| 2026-04-25 00:21 | -35.17377 | 148.70858 | 37482 ft | 481 kts | 54° |
| 2026-04-25 00:21 | -35.13312 | 148.77299 | 37486 ft | 481 kts | 54° |
| 2026-04-25 00:22 | -35.09219 | 148.83775 | 37499 ft | 481 kts | 54° |
| 2026-04-25 00:22 | -35.05125 | 148.90239 | 37496 ft | 481 kts | 54° |
| 2026-04-25 00:23 | -35.01027 | 148.96697 | 37496 ft | 481 kts | 54° |
| 2026-04-25 00:23 | -34.96923 | 149.03154 | 37496 ft | 481 kts | 54° |
| 2026-04-25 00:24 | -34.92818 | 149.09600 | 37491 ft | 480 kts | 54° |
| 2026-04-25 00:24 | -34.88747 | 149.15980 | 37485 ft | 480 kts | 54° |
| 2026-04-25 00:25 | -34.84634 | 149.22415 | 37485 ft | 481 kts | 54° |
| 2026-04-25 00:25 | -34.80529 | 149.28826 | 36697 ft | 480 kts | 54° |
| 2026-04-25 00:26 | -34.78471 | 149.32037 | 35972 ft | 480 kts | 54° |
| 2026-04-25 00:26 | -34.76419 | 149.35233 | 35308 ft | 479 kts | 54° |
| 2026-04-25 00:26 | -34.74388 | 149.38435 | 34643 ft | 476 kts | 58° |
| 2026-04-25 00:26 | -34.72737 | 149.41901 | 33934 ft | 470 kts | 64° |
| 2026-04-25 00:27 | -34.71210 | 149.45404 | 33270 ft | 467 kts | 64° |
| 2026-04-25 00:27 | -34.69697 | 149.48881 | 32622 ft | 464 kts | 64° |
| 2026-04-25 00:27 | -34.68212 | 149.52288 | 31985 ft | 460 kts | 64° |
| 2026-04-25 00:27 | -34.66718 | 149.55708 | 31350 ft | 457 kts | 64° |
| 2026-04-25 00:28 | -34.65213 | 149.59148 | 30714 ft | 453 kts | 64° |
| 2026-04-25 00:28 | -34.63756 | 149.62479 | 30054 ft | 449 kts | 64° |
| 2026-04-25 00:28 | -34.62297 | 149.65812 | 29435 ft | 443 kts | 64° |
| 2026-04-25 00:28 | -34.60855 | 149.69100 | 28836 ft | 437 kts | 64° |
| 2026-04-25 00:29 | -34.59434 | 149.72338 | 28235 ft | 432 kts | 64° |
| 2026-04-25 00:29 | -34.58031 | 149.75534 | 27650 ft | 426 kts | 64° |
| 2026-04-25 00:29 | -34.56644 | 149.78688 | 27076 ft | 421 kts | 64° |
| 2026-04-25 00:29 | -34.55272 | 149.81806 | 26495 ft | 416 kts | 64° |
| 2026-04-25 00:30 | -34.53916 | 149.84885 | 25951 ft | 411 kts | 64° |
| 2026-04-25 00:30 | -34.52594 | 149.87884 | 25416 ft | 406 kts | 64° |
| 2026-04-25 00:30 | -34.51267 | 149.90891 | 24861 ft | 402 kts | 64° |
| 2026-04-25 00:30 | -34.49955 | 149.93863 | 24321 ft | 397 kts | 63° |
| 2026-04-25 00:31 | -34.48657 | 149.96799 | 23746 ft | 393 kts | 63° |
| 2026-04-25 00:31 | -34.47377 | 149.99691 | 23220 ft | 386 kts | 63° |
| 2026-04-25 00:31 | -34.46121 | 150.02528 | 22708 ft | 379 kts | 63° |
| 2026-04-25 00:31 | -34.44881 | 150.05326 | 22204 ft | 373 kts | 63° |
| 2026-04-25 00:32 | -34.43662 | 150.08074 | 21703 ft | 367 kts | 63° |
| 2026-04-25 00:32 | -34.42455 | 150.10795 | 21226 ft | 364 kts | 63° |
| 2026-04-25 00:32 | -34.41255 | 150.13496 | 20741 ft | 364 kts | 63° |
| 2026-04-25 00:32 | -34.40055 | 150.16195 | 20251 ft | 363 kts | 63° |
| 2026-04-25 00:33 | -34.38865 | 150.18869 | 19784 ft | 358 kts | 63° |
| 2026-04-25 00:33 | -34.37707 | 150.21469 | 19306 ft | 353 kts | 63° |
| 2026-04-25 00:33 | -34.36542 | 150.24084 | 18849 ft | 353 kts | 63° |
| 2026-04-25 00:33 | -34.35375 | 150.26703 | 18345 ft | 351 kts | 63° |
| 2026-04-25 00:34 | -34.34215 | 150.29303 | 17875 ft | 350 kts | 63° |
| 2026-04-25 00:34 | -34.33069 | 150.31867 | 17418 ft | 342 kts | 63° |
| 2026-04-25 00:34 | -34.31940 | 150.34393 | 16963 ft | 340 kts | 62° |
| 2026-04-25 00:34 | -34.30813 | 150.36915 | 16517 ft | 341 kts | 62° |
| 2026-04-25 00:35 | -34.29680 | 150.39446 | 16060 ft | 340 kts | 62° |
| 2026-04-25 00:35 | -34.28566 | 150.41931 | 15622 ft | 333 kts | 62° |
| 2026-04-25 00:35 | -34.27465 | 150.44390 | 15183 ft | 333 kts | 62° |
| 2026-04-25 00:35 | -34.26376 | 150.46829 | 14752 ft | 332 kts | 62° |
| 2026-04-25 00:36 | -34.25286 | 150.49274 | 14311 ft | 330 kts | 62° |
| 2026-04-25 00:36 | -34.24195 | 150.51710 | 13850 ft | 327 kts | 62° |
| 2026-04-25 00:36 | -34.23111 | 150.54130 | 13419 ft | 327 kts | 62° |
| 2026-04-25 00:36 | -34.22024 | 150.56557 | 12989 ft | 328 kts | 62° |
| 2026-04-25 00:37 | -34.20937 | 150.58982 | 12559 ft | 327 kts | 62° |
| 2026-04-25 00:37 | -34.19877 | 150.61343 | 12138 ft | 322 kts | 62° |
| 2026-04-25 00:37 | -34.18808 | 150.63725 | 11705 ft | 323 kts | 62° |
| 2026-04-25 00:37 | -34.17743 | 150.66096 | 11511 ft | 322 kts | 62° |
| 2026-04-25 00:38 | -34.16677 | 150.68467 | 11246 ft | 316 kts | 62° |
| 2026-04-25 00:38 | -34.15646 | 150.70759 | 10949 ft | 304 kts | 62° |
| 2026-04-25 00:38 | -34.14652 | 150.72963 | 10670 ft | 293 kts | 62° |
| 2026-04-25 00:38 | -34.13706 | 150.75066 | 10390 ft | 285 kts | 62° |
| 2026-04-25 00:39 | -34.12777 | 150.77128 | 9814 ft | 273 kts | 62° |
| 2026-04-25 00:39 | -34.11870 | 150.79138 | 9469 ft | 274 kts | 62° |
| 2026-04-25 00:39 | -34.10958 | 150.81160 | 9183 ft | 274 kts | 62° |
| 2026-04-25 00:39 | -34.10045 | 150.83181 | 8937 ft | 274 kts | 62° |
| 2026-04-25 00:40 | -34.09137 | 150.85198 | 8683 ft | 273 kts | 62° |
| 2026-04-25 00:40 | -34.08230 | 150.87216 | 8459 ft | 276 kts | 61° |
| 2026-04-25 00:40 | -34.07302 | 150.89278 | 8205 ft | 276 kts | 61° |
| 2026-04-25 00:40 | -34.06394 | 150.91293 | 7966 ft | 271 kts | 61° |
| 2026-04-25 00:41 | -34.05497 | 150.93283 | 7714 ft | 269 kts | 60° |
| 2026-04-25 00:41 | -34.04614 | 150.95241 | 7480 ft | 261 kts | 61° |
| 2026-04-25 00:41 | -34.03783 | 150.97082 | 7253 ft | 248 kts | 60° |
| 2026-04-25 00:41 | -34.03095 | 150.98975 | 7009 ft | 245 kts | 81° |
| 2026-04-25 00:42 | -34.03197 | 151.01012 | 6815 ft | 245 kts | 107° |
| 2026-04-25 00:42 | -34.04053 | 151.02739 | 6622 ft | 245 kts | 131° |
| 2026-04-25 00:42 | -34.05216 | 151.04245 | 6419 ft | 245 kts | 133° |
| 2026-04-25 00:42 | -34.06401 | 151.05703 | 6202 ft | 242 kts | 133° |
| 2026-04-25 00:43 | -34.07585 | 151.07152 | 5990 ft | 241 kts | 137° |
| 2026-04-25 00:43 | -34.09087 | 151.07999 | 5760 ft | 242 kts | 167° |
| 2026-04-25 00:43 | -34.10686 | 151.08421 | 5608 ft | 228 kts | 167° |
| 2026-04-25 00:43 | -34.12205 | 151.08820 | 5419 ft | 220 kts | 167° |
| 2026-04-25 00:44 | -34.13694 | 151.09204 | 5231 ft | 217 kts | 167° |
| 2026-04-25 00:44 | -34.15168 | 151.09584 | 5030 ft | 216 kts | 167° |
| 2026-04-25 00:44 | -34.16635 | 151.09964 | 4846 ft | 215 kts | 167° |
| 2026-04-25 00:44 | -34.18036 | 151.10541 | 4600 ft | 212 kts | 143° |
| 2026-04-25 00:45 | -34.18903 | 151.11885 | 4411 ft | 200 kts | 110° |
| 2026-04-25 00:45 | -34.19034 | 151.13465 | 4260 ft | 190 kts | 79° |
| 2026-04-25 00:45 | -34.18761 | 151.15011 | 4149 ft | 188 kts | 76° |
| 2026-04-25 00:45 | -34.18477 | 151.16544 | 3984 ft | 186 kts | 75° |
| 2026-04-25 00:46 | -34.18198 | 151.18078 | 3822 ft | 186 kts | 76° |
| 2026-04-25 00:46 | -34.17924 | 151.19606 | 3647 ft | 185 kts | 75° |
| 2026-04-25 00:46 | -34.17015 | 151.22415 | 3281 ft | 180 kts | 37° |
| 2026-04-25 00:47 | -34.15841 | 151.22813 | 3144 ft | 179 kts | 1° |
| 2026-04-25 00:47 | -34.14595 | 151.22779 | 3002 ft | 181 kts | 352° |
| 2026-04-25 00:47 | -34.13386 | 151.22477 | 3009 ft | 178 kts | 349° |
| 2026-04-25 00:47 | -34.12161 | 151.22167 | 3012 ft | 182 kts | 348° |
| 2026-04-25 00:48 | -34.10920 | 151.21845 | 2946 ft | 181 kts | 348° |
| 2026-04-25 00:48 | -34.09750 | 151.21540 | 2719 ft | 164 kts | 348° |
| 2026-04-25 00:48 | -34.08651 | 151.21253 | 2500 ft | 160 kts | 348° |
| 2026-04-25 00:48 | -34.07571 | 151.20972 | 2292 ft | 158 kts | 348° |
| 2026-04-25 00:49 | -34.06496 | 151.20693 | 2081 ft | 158 kts | 348° |
| 2026-04-25 00:49 | -34.05449 | 151.20420 | 1875 ft | 154 kts | 348° |
| 2026-04-25 00:49 | -34.04404 | 151.20147 | 1669 ft | 153 kts | 348° |
| 2026-04-25 00:49 | -34.03378 | 151.19882 | 1460 ft | 146 kts | 347° |
| 2026-04-25 00:50 | -34.02421 | 151.19627 | 1270 ft | 141 kts | 347° |
| 2026-04-25 00:50 | -34.01456 | 151.19366 | 1035 ft | 139 kts | 346° |
| 2026-04-25 00:50 | -34.00503 | 151.19115 | 902 ft | 143 kts | 347° |
| 2026-04-25 00:50 | -33.99525 | 151.18870 | 703 ft | 137 kts | 347° |
| 2026-04-25 00:51 | -33.98599 | 151.18633 | 495 ft | 139 kts | 346° |
| 2026-04-25 00:51 | -33.97650 | 151.18382 | 336 ft | 142 kts | 345° |
| 2026-04-25 00:51 | -33.96697 | 151.18134 | 137 ft | 138 kts | 346° |
| 2026-04-25 00:51 | -33.95800 | 151.17902 | 34 ft | 115 kts | 347° |
| 2026-04-25 00:52 | -33.95242 | 151.17758 | 35 ft | 56 kts | 348° |
| 2026-04-25 00:52 | -33.94867 | 151.17660 | 35 ft | 50 kts | 348° |
| 2026-04-25 00:52 | -33.94560 | 151.17558 | 36 ft | 39 kts | 336° |
| 2026-04-25 00:52 | -33.94377 | 151.17411 | 35 ft | 26 kts | 317° |
| 2026-04-25 00:53 | -33.94337 | 151.17367 | 36 ft | 0 kts | 317° |
| 2026-04-25 00:53 | -33.94330 | 151.17360 | 36 ft | 6 kts | 317° |
| 2026-04-25 00:54 | -33.94272 | 151.17305 | 35 ft | 13 kts | 334° |
| 2026-04-25 00:54 | -33.94176 | 151.17278 | 34 ft | 15 kts | 350° |
| 2026-04-25 00:54 | -33.94069 | 151.17250 | 34 ft | 16 kts | 347° |
| 2026-04-25 00:54 | -33.93959 | 151.17222 | 34 ft | 15 kts | 348° |
| 2026-04-25 00:55 | -33.93851 | 151.17194 | 34 ft | 17 kts | 348° |
| 2026-04-25 00:55 | -33.93733 | 151.17163 | 34 ft | 18 kts | 347° |
| 2026-04-25 00:55 | -33.93619 | 151.17134 | 35 ft | 17 kts | 348° |
| 2026-04-25 00:55 | -33.93518 | 151.17099 | 35 ft | 8 kts | 316° |
| 2026-04-25 00:56 | -33.93500 | 151.17049 | 35 ft | 6 kts | 282° |
| 2026-04-25 00:56 | -33.93505 | 151.17002 | 35 ft | 6 kts | 255° |
| 2026-04-25 00:56 | -33.93520 | 151.16933 | 35 ft | 11 kts | 258° |
| 2026-04-25 00:56 | -33.93546 | 151.16852 | 36 ft | 6 kts | 238° |
| 2026-04-25 00:57 | -33.93557 | 151.16832 | 35 ft | 2 kts | 237° |
| 2026-04-25 00:57 | -33.93561 | 151.16823 | 36 ft | 0 kts | 237° |